KLAW/LAW METAR and TAF weather

Enter ICAO airport designator
Station Type Date Time Source
KLAW METAR 2022/06/27 07:53 UTC NOAA

KLAW 270753Z AUTO 04010KT 10SM CLR 21/11 A3026 RMK AO2 SLP234 T02110111


Station Type Date Time Source
KLAW Decoded METAR 2022/06/27 07:53 UTC NOAA

LAWTON - FORT SILL REGIONAL, OK, United States (KLAW) 34-34N 98-25W 337M
Jun 27, 2022 - 03:53 AM EDT / 2022.06.27 0753 UTC
Wind: from the NE (040 degrees) at 12 MPH (10 KT):0
Visibility: 10 mile(s):0
Sky conditions: clear
Temperature: 70.0 F (21.1 C)
Dew Point: 52.0 F (11.1 C)
Relative Humidity: 52%
Pressure (altimeter): 30.26 in. Hg (1024 hPa)
ob: KLAW 270753Z AUTO 04010KT 10SM CLR 21/11 A3026 RMK AO2 SLP234 T02110111
cycle: 8

Station Type Date Time Source
KLAW TAF 2022/06/27 06:22 UTC NOAA

TAF KLAW 270520Z 2706/2806 02013KT P6SM SCT250
FM271700 05010G18KT P6SM SCT250
FM272300 05009KT P6SM BKN250

Example: see airport list